SYF weather

Cheyenne County Municipal Airport
St Francis, Kansas, United States

Public forecast

Using degrees Fahrenheit for public forecast. Weather courtesy of forecast.io.

METAR (pilot weather report)

Retrieved 2019/07/18 18:15 UTC (11 minutes ago):

KSYF 181815Z AUTO 01005KT 10SM CLR 37/05 A2984 RMK AO2 T03710050

TAF (pilot weather forecast)

Closest forecast is Renner Field-Goodland Municipal Airport, 23.9 nm (44.2 km) S. Retrieved 2019/07/18 18:22 UTC (4 minutes ago):

TAF KGLD 181720Z 1818/1918 VRB06KT P6SM SKC